sensor_id;sensor_type;location;lat;lon;timestamp;P1;durP1;ratioP1;P2;durP2;ratioP2
84784;SDS011;75017;41.576;24.704;2024-02-23T00:01:39;17.88;;;9.82;;
84784;SDS011;75017;41.576;24.704;2024-02-23T00:04:04;16.98;;;9.43;;
84784;SDS011;75017;41.576;24.704;2024-02-23T00:06:32;18.80;;;9.85;;
84784;SDS011;75017;41.576;24.704;2024-02-23T00:08:57;16.05;;;8.32;;
84784;SDS011;75017;41.576;24.704;2024-02-23T00:11:23;13.88;;;7.15;;
84784;SDS011;75017;41.576;24.704;2024-02-23T00:13:49;17.00;;;8.23;;
84784;SDS011;75017;41.576;24.704;2024-02-23T00:16:14;11.57;;;6.45;;
84784;SDS011;75017;41.576;24.704;2024-02-23T00:18:40;15.98;;;8.60;;
84784;SDS011;75017;41.576;24.704;2024-02-23T00:21:05;15.00;;;8.02;;
84784;SDS011;75017;41.576;24.704;2024-02-23T00:23:31;13.82;;;6.97;;
84784;SDS011;75017;41.576;24.704;2024-02-23T00:25:56;13.82;;;7.32;;
84784;SDS011;75017;41.576;24.704;2024-02-23T00:28:22;11.45;;;6.25;;
84784;SDS011;75017;41.576;24.704;2024-02-23T00:30:47;10.18;;;5.68;;
84784;SDS011;75017;41.576;24.704;2024-02-23T00:33:13;9.73;;;4.68;;
84784;SDS011;75017;41.576;24.704;2024-02-23T00:35:39;13.93;;;8.00;;
84784;SDS011;75017;41.576;24.704;2024-02-23T00:38:04;12.32;;;7.00;;
84784;SDS011;75017;41.576;24.704;2024-02-23T00:40:30;10.13;;;6.03;;
84784;SDS011;75017;41.576;24.704;2024-02-23T00:42:55;13.38;;;7.82;;
84784;SDS011;75017;41.576;24.704;2024-02-23T00:45:21;9.02;;;5.22;;
84784;SDS011;75017;41.576;24.704;2024-02-23T00:47:47;11.63;;;5.95;;
84784;SDS011;75017;41.576;24.704;2024-02-23T00:50:13;9.18;;;5.55;;
84784;SDS011;75017;41.576;24.704;2024-02-23T00:52:39;12.63;;;6.47;;
84784;SDS011;75017;41.576;24.704;2024-02-23T00:55:06;13.25;;;6.63;;
84784;SDS011;75017;41.576;24.704;2024-02-23T00:57:33;11.25;;;5.60;;
84784;SDS011;75017;41.576;24.704;2024-02-23T00:59:59;9.40;;;5.05;;
84784;SDS011;75017;41.576;24.704;2024-02-23T01:02:24;14.45;;;5.88;;
84784;SDS011;75017;41.576;24.704;2024-02-23T01:04:50;9.20;;;5.55;;
84784;SDS011;75017;41.576;24.704;2024-02-23T01:07:15;11.18;;;6.10;;
84784;SDS011;75017;41.576;24.704;2024-02-23T01:09:41;11.60;;;6.07;;
84784;SDS011;75017;41.576;24.704;2024-02-23T01:12:06;9.50;;;5.88;;
84784;SDS011;75017;41.576;24.704;2024-02-23T01:14:32;11.35;;;6.15;;
84784;SDS011;75017;41.576;24.704;2024-02-23T01:16:57;10.40;;;5.40;;
84784;SDS011;75017;41.576;24.704;2024-02-23T01:19:23;12.63;;;7.00;;
84784;SDS011;75017;41.576;24.704;2024-02-23T01:21:49;11.13;;;6.10;;
84784;SDS011;75017;41.576;24.704;2024-02-23T01:24:20;11.80;;;6.03;;
84784;SDS011;75017;41.576;24.704;2024-02-23T01:26:46;10.80;;;6.22;;
84784;SDS011;75017;41.576;24.704;2024-02-23T01:29:11;10.15;;;6.18;;
84784;SDS011;75017;41.576;24.704;2024-02-23T01:31:37;12.93;;;5.90;;
84784;SDS011;75017;41.576;24.704;2024-02-23T01:34:03;11.50;;;6.68;;
84784;SDS011;75017;41.576;24.704;2024-02-23T01:36:28;11.15;;;6.18;;
84784;SDS011;75017;41.576;24.704;2024-02-23T01:38:54;10.15;;;5.93;;
84784;SDS011;75017;41.576;24.704;2024-02-23T01:41:20;10.40;;;6.00;;
84784;SDS011;75017;41.576;24.704;2024-02-23T01:43:45;10.95;;;5.55;;
84784;SDS011;75017;41.576;24.704;2024-02-23T01:46:10;8.88;;;5.90;;
84784;SDS011;75017;41.576;24.704;2024-02-23T01:48:37;11.48;;;5.85;;
84784;SDS011;75017;41.576;24.704;2024-02-23T01:51:02;11.35;;;6.63;;
84784;SDS011;75017;41.576;24.704;2024-02-23T01:53:29;9.88;;;5.28;;
84784;SDS011;75017;41.576;24.704;2024-02-23T01:55:55;10.00;;;5.57;;
84784;SDS011;75017;41.576;24.704;2024-02-23T01:58:22;10.50;;;5.95;;
84784;SDS011;75017;41.576;24.704;2024-02-23T02:00:48;11.20;;;5.82;;
84784;SDS011;75017;41.576;24.704;2024-02-23T02:03:14;7.82;;;4.35;;
84784;SDS011;75017;41.576;24.704;2024-02-23T02:05:39;9.05;;;5.05;;
84784;SDS011;75017;41.576;24.704;2024-02-23T02:08:05;10.52;;;5.60;;
84784;SDS011;75017;41.576;24.704;2024-02-23T02:10:31;11.30;;;5.93;;
84784;SDS011;75017;41.576;24.704;2024-02-23T02:13:05;10.18;;;5.95;;
84784;SDS011;75017;41.576;24.704;2024-02-23T02:15:31;7.95;;;4.63;;
84784;SDS011;75017;41.576;24.704;2024-02-23T02:17:56;9.32;;;4.85;;
84784;SDS011;75017;41.576;24.704;2024-02-23T02:20:24;9.88;;;5.32;;
84784;SDS011;75017;41.576;24.704;2024-02-23T02:22:51;9.48;;;5.03;;
84784;SDS011;75017;41.576;24.704;2024-02-23T02:25:17;12.55;;;5.65;;
84784;SDS011;75017;41.576;24.704;2024-02-23T02:27:43;9.63;;;4.82;;
84784;SDS011;75017;41.576;24.704;2024-02-23T02:30:11;8.38;;;4.68;;
84784;SDS011;75017;41.576;24.704;2024-02-23T02:32:37;9.02;;;4.68;;
84784;SDS011;75017;41.576;24.704;2024-02-23T02:35:02;9.40;;;5.07;;
84784;SDS011;75017;41.576;24.704;2024-02-23T02:37:28;9.40;;;5.53;;
84784;SDS011;75017;41.576;24.704;2024-02-23T02:39:54;9.38;;;5.40;;
84784;SDS011;75017;41.576;24.704;2024-02-23T02:42:19;8.15;;;4.95;;
84784;SDS011;75017;41.576;24.704;2024-02-23T02:44:45;11.52;;;6.07;;
84784;SDS011;75017;41.576;24.704;2024-02-23T02:47:11;9.68;;;4.88;;
84784;SDS011;75017;41.576;24.704;2024-02-23T02:49:36;9.30;;;5.47;;
84784;SDS011;75017;41.576;24.704;2024-02-23T02:52:02;9.80;;;5.28;;
84784;SDS011;75017;41.576;24.704;2024-02-23T02:54:27;11.23;;;5.63;;
84784;SDS011;75017;41.576;24.704;2024-02-23T02:56:52;14.13;;;7.20;;
84784;SDS011;75017;41.576;24.704;2024-02-23T02:59:19;11.85;;;6.55;;
84784;SDS011;75017;41.576;24.704;2024-02-23T03:01:45;8.88;;;4.55;;
84784;SDS011;75017;41.576;24.704;2024-02-23T03:04:12;8.27;;;4.82;;
84784;SDS011;75017;41.576;24.704;2024-02-23T03:06:37;10.23;;;5.30;;
84784;SDS011;75017;41.576;24.704;2024-02-23T03:09:03;10.23;;;5.55;;
84784;SDS011;75017;41.576;24.704;2024-02-23T03:11:30;9.05;;;5.20;;
84784;SDS011;75017;41.576;24.704;2024-02-23T03:13:55;9.68;;;4.88;;
84784;SDS011;75017;41.576;24.704;2024-02-23T03:16:21;9.68;;;5.25;;
84784;SDS011;75017;41.576;24.704;2024-02-23T03:18:48;7.85;;;4.53;;
84784;SDS011;75017;41.576;24.704;2024-02-23T03:21:14;11.43;;;6.20;;
84784;SDS011;75017;41.576;24.704;2024-02-23T03:23:40;9.63;;;5.85;;
84784;SDS011;75017;41.576;24.704;2024-02-23T03:26:06;12.63;;;6.47;;
84784;SDS011;75017;41.576;24.704;2024-02-23T03:28:32;11.07;;;5.22;;
84784;SDS011;75017;41.576;24.704;2024-02-23T03:30:58;10.20;;;5.70;;
84784;SDS011;75017;41.576;24.704;2024-02-23T03:33:24;11.98;;;5.90;;
84784;SDS011;75017;41.576;24.704;2024-02-23T03:35:50;11.00;;;5.35;;
84784;SDS011;75017;41.576;24.704;2024-02-23T03:38:15;9.85;;;5.65;;
84784;SDS011;75017;41.576;24.704;2024-02-23T03:40:41;13.10;;;6.75;;
84784;SDS011;75017;41.576;24.704;2024-02-23T03:43:07;10.77;;;6.55;;
84784;SDS011;75017;41.576;24.704;2024-02-23T03:45:32;14.48;;;6.25;;
84784;SDS011;75017;41.576;24.704;2024-02-23T03:47:58;12.38;;;6.93;;
84784;SDS011;75017;41.576;24.704;2024-02-23T03:50:24;12.93;;;7.65;;
84784;SDS011;75017;41.576;24.704;2024-02-23T03:52:50;14.35;;;8.30;;
84784;SDS011;75017;41.576;24.704;2024-02-23T03:55:15;13.18;;;8.18;;
84784;SDS011;75017;41.576;24.704;2024-02-23T03:57:41;13.45;;;9.13;;
84784;SDS011;75017;41.576;24.704;2024-02-23T04:00:06;10.88;;;6.78;;
84784;SDS011;75017;41.576;24.704;2024-02-23T04:02:33;17.83;;;7.47;;
84784;SDS011;75017;41.576;24.704;2024-02-23T04:04:59;12.02;;;8.05;;
84784;SDS011;75017;41.576;24.704;2024-02-23T04:07:25;14.75;;;8.20;;
84784;SDS011;75017;41.576;24.704;2024-02-23T04:09:50;15.43;;;8.68;;
84784;SDS011;75017;41.576;24.704;2024-02-23T04:12:19;13.55;;;8.73;;
84784;SDS011;75017;41.576;24.704;2024-02-23T04:14:45;9.35;;;5.18;;
84784;SDS011;75017;41.576;24.704;2024-02-23T04:17:11;12.55;;;7.15;;
84784;SDS011;75017;41.576;24.704;2024-02-23T04:19:37;6.85;;;3.97;;
84784;SDS011;75017;41.576;24.704;2024-02-23T04:22:03;15.88;;;6.72;;
84784;SDS011;75017;41.576;24.704;2024-02-23T04:24:29;11.13;;;6.97;;
84784;SDS011;75017;41.576;24.704;2024-02-23T04:26:54;8.73;;;4.38;;
84784;SDS011;75017;41.576;24.704;2024-02-23T04:29:20;9.65;;;5.28;;
84784;SDS011;75017;41.576;24.704;2024-02-23T04:31:45;10.52;;;5.57;;
84784;SDS011;75017;41.576;24.704;2024-02-23T04:34:11;12.50;;;6.28;;
84784;SDS011;75017;41.576;24.704;2024-02-23T04:36:36;11.10;;;6.65;;
84784;SDS011;75017;41.576;24.704;2024-02-23T04:39:02;10.20;;;6.15;;
84784;SDS011;75017;41.576;24.704;2024-02-23T04:41:27;12.68;;;6.63;;
84784;SDS011;75017;41.576;24.704;2024-02-23T04:43:53;15.23;;;8.23;;
84784;SDS011;75017;41.576;24.704;2024-02-23T04:46:24;13.75;;;7.60;;
84784;SDS011;75017;41.576;24.704;2024-02-23T04:48:50;14.57;;;7.32;;
84784;SDS011;75017;41.576;24.704;2024-02-23T04:51:16;17.15;;;9.13;;
84784;SDS011;75017;41.576;24.704;2024-02-23T04:53:41;13.68;;;8.15;;
84784;SDS011;75017;41.576;24.704;2024-02-23T04:56:07;15.27;;;8.60;;
84784;SDS011;75017;41.576;24.704;2024-02-23T04:58:32;13.18;;;8.13;;
84784;SDS011;75017;41.576;24.704;2024-02-23T05:00:58;20.67;;;11.00;;
84784;SDS011;75017;41.576;24.704;2024-02-23T05:03:23;17.83;;;9.65;;
84784;SDS011;75017;41.576;24.704;2024-02-23T05:05:49;11.98;;;6.75;;
84784;SDS011;75017;41.576;24.704;2024-02-23T05:08:19;13.88;;;7.63;;
84784;SDS011;75017;41.576;24.704;2024-02-23T05:10:48;16.70;;;9.63;;
84784;SDS011;75017;41.576;24.704;2024-02-23T05:13:13;14.15;;;7.45;;
84784;SDS011;75017;41.576;24.704;2024-02-23T05:15:39;11.00;;;6.90;;
84784;SDS011;75017;41.576;24.704;2024-02-23T05:18:05;9.23;;;6.00;;
84784;SDS011;75017;41.576;24.704;2024-02-23T05:20:31;11.00;;;6.40;;
84784;SDS011;75017;41.576;24.704;2024-02-23T05:22:56;17.00;;;7.32;;
84784;SDS011;75017;41.576;24.704;2024-02-23T05:25:22;10.15;;;6.03;;
84784;SDS011;75017;41.576;24.704;2024-02-23T05:27:47;20.27;;;10.80;;
84784;SDS011;75017;41.576;24.704;2024-02-23T05:30:13;20.05;;;10.60;;
84784;SDS011;75017;41.576;24.704;2024-02-23T05:32:39;23.35;;;12.60;;
84784;SDS011;75017;41.576;24.704;2024-02-23T05:35:05;14.93;;;9.15;;
84784;SDS011;75017;41.576;24.704;2024-02-23T05:37:31;15.68;;;10.18;;
84784;SDS011;75017;41.576;24.704;2024-02-23T05:39:56;17.90;;;9.55;;
84784;SDS011;75017;41.576;24.704;2024-02-23T05:42:24;17.45;;;10.38;;
84784;SDS011;75017;41.576;24.704;2024-02-23T05:44:50;15.55;;;9.77;;
84784;SDS011;75017;41.576;24.704;2024-02-23T05:47:16;44.25;;;23.13;;
84784;SDS011;75017;41.576;24.704;2024-02-23T05:49:42;26.13;;;14.60;;
84784;SDS011;75017;41.576;24.704;2024-02-23T05:52:08;23.95;;;12.23;;
84784;SDS011;75017;41.576;24.704;2024-02-23T05:54:34;31.10;;;18.88;;
84784;SDS011;75017;41.576;24.704;2024-02-23T05:57:00;30.40;;;18.80;;
84784;SDS011;75017;41.576;24.704;2024-02-23T05:59:26;32.45;;;17.73;;
84784;SDS011;75017;41.576;24.704;2024-02-23T06:01:52;31.08;;;17.35;;
84784;SDS011;75017;41.576;24.704;2024-02-23T06:04:21;31.73;;;19.67;;
84784;SDS011;75017;41.576;24.704;2024-02-23T06:06:48;28.98;;;17.85;;
84784;SDS011;75017;41.576;24.704;2024-02-23T06:09:13;27.90;;;17.17;;
84784;SDS011;75017;41.576;24.704;2024-02-23T06:11:39;27.33;;;18.20;;
84784;SDS011;75017;41.576;24.704;2024-02-23T06:14:04;31.50;;;19.08;;
84784;SDS011;75017;41.576;24.704;2024-02-23T06:16:29;34.22;;;17.10;;
84784;SDS011;75017;41.576;24.704;2024-02-23T06:18:55;25.67;;;16.00;;
84784;SDS011;75017;41.576;24.704;2024-02-23T06:21:21;30.75;;;17.15;;
84784;SDS011;75017;41.576;24.704;2024-02-23T06:23:46;27.95;;;17.70;;
84784;SDS011;75017;41.576;24.704;2024-02-23T06:26:11;27.23;;;17.40;;
84784;SDS011;75017;41.576;24.704;2024-02-23T06:28:38;30.20;;;16.95;;
84784;SDS011;75017;41.576;24.704;2024-02-23T06:31:06;30.45;;;17.95;;
84784;SDS011;75017;41.576;24.704;2024-02-23T06:33:32;31.20;;;20.02;;
84784;SDS011;75017;41.576;24.704;2024-02-23T06:35:58;36.72;;;19.73;;
84784;SDS011;75017;41.576;24.704;2024-02-23T06:38:24;31.08;;;18.83;;
84784;SDS011;75017;41.576;24.704;2024-02-23T06:40:49;31.52;;;16.75;;
84784;SDS011;75017;41.576;24.704;2024-02-23T06:43:15;32.42;;;17.63;;
84784;SDS011;75017;41.576;24.704;2024-02-23T06:45:40;30.73;;;17.35;;
84784;SDS011;75017;41.576;24.704;2024-02-23T06:48:06;34.47;;;18.13;;
84784;SDS011;75017;41.576;24.704;2024-02-23T06:50:32;28.30;;;14.88;;
84784;SDS011;75017;41.576;24.704;2024-02-23T06:52:57;23.20;;;10.90;;
84784;SDS011;75017;41.576;24.704;2024-02-23T06:55:23;32.40;;;16.20;;
84784;SDS011;75017;41.576;24.704;2024-02-23T06:57:48;10.13;;;6.28;;
84784;SDS011;75017;41.576;24.704;2024-02-23T07:00:14;18.63;;;7.55;;
84784;SDS011;75017;41.576;24.704;2024-02-23T07:02:40;10.27;;;5.55;;
84784;SDS011;75017;41.576;24.704;2024-02-23T07:05:06;5.38;;;3.17;;
84784;SDS011;75017;41.576;24.704;2024-02-23T07:07:33;7.60;;;3.45;;
84784;SDS011;75017;41.576;24.704;2024-02-23T07:10:00;5.70;;;3.28;;
84784;SDS011;75017;41.576;24.704;2024-02-23T07:12:26;8.18;;;3.53;;
84784;SDS011;75017;41.576;24.704;2024-02-23T07:14:54;8.98;;;3.50;;
84784;SDS011;75017;41.576;24.704;2024-02-23T07:17:22;4.60;;;2.60;;
84784;SDS011;75017;41.576;24.704;2024-02-23T07:19:48;9.23;;;3.03;;
84784;SDS011;75017;41.576;24.704;2024-02-23T07:22:15;3.92;;;2.53;;
84784;SDS011;75017;41.576;24.704;2024-02-23T07:24:43;6.50;;;2.17;;
84784;SDS011;75017;41.576;24.704;2024-02-23T07:27:09;8.55;;;2.63;;
84784;SDS011;75017;41.576;24.704;2024-02-23T07:29:35;5.45;;;2.55;;
84784;SDS011;75017;41.576;24.704;2024-02-23T07:32:00;6.03;;;2.20;;
84784;SDS011;75017;41.576;24.704;2024-02-23T07:34:26;13.57;;;4.07;;
84784;SDS011;75017;41.576;24.704;2024-02-23T07:36:52;7.18;;;1.83;;
84784;SDS011;75017;41.576;24.704;2024-02-23T07:39:17;3.05;;;1.98;;
84784;SDS011;75017;41.576;24.704;2024-02-23T07:41:43;4.78;;;1.80;;
84784;SDS011;75017;41.576;24.704;2024-02-23T07:44:09;3.10;;;1.90;;
84784;SDS011;75017;41.576;24.704;2024-02-23T07:46:35;9.88;;;3.03;;
84784;SDS011;75017;41.576;24.704;2024-02-23T07:49:00;4.85;;;2.10;;
84784;SDS011;75017;41.576;24.704;2024-02-23T07:51:26;2.58;;;1.40;;
84784;SDS011;75017;41.576;24.704;2024-02-23T07:53:51;3.08;;;2.00;;
84784;SDS011;75017;41.576;24.704;2024-02-23T07:56:17;11.73;;;3.22;;
84784;SDS011;75017;41.576;24.704;2024-02-23T07:58:42;6.40;;;3.38;;
84784;SDS011;75017;41.576;24.704;2024-02-23T08:01:08;6.65;;;1.77;;
84784;SDS011;75017;41.576;24.704;2024-02-23T08:03:33;5.05;;;2.35;;
84784;SDS011;75017;41.576;24.704;2024-02-23T08:05:59;9.57;;;2.65;;
84784;SDS011;75017;41.576;24.704;2024-02-23T08:08:26;4.03;;;2.30;;
84784;SDS011;75017;41.576;24.704;2024-02-23T08:10:53;6.75;;;2.97;;
84784;SDS011;75017;41.576;24.704;2024-02-23T08:13:18;3.88;;;2.00;;
84784;SDS011;75017;41.576;24.704;2024-02-23T08:15:44;4.50;;;2.17;;
84784;SDS011;75017;41.576;24.704;2024-02-23T08:18:10;4.95;;;1.40;;
84784;SDS011;75017;41.576;24.704;2024-02-23T08:20:35;2.60;;;1.30;;
84784;SDS011;75017;41.576;24.704;2024-02-23T08:23:01;4.15;;;1.95;;
84784;SDS011;75017;41.576;24.704;2024-02-23T08:25:27;3.08;;;1.70;;
84784;SDS011;75017;41.576;24.704;2024-02-23T08:27:55;8.40;;;2.60;;
84784;SDS011;75017;41.576;24.704;2024-02-23T08:30:21;7.32;;;3.05;;
84784;SDS011;75017;41.576;24.704;2024-02-23T08:32:48;7.35;;;2.42;;
84784;SDS011;75017;41.576;24.704;2024-02-23T08:35:13;6.32;;;1.60;;
84784;SDS011;75017;41.576;24.704;2024-02-23T08:37:40;3.90;;;2.38;;
84784;SDS011;75017;41.576;24.704;2024-02-23T08:40:07;6.75;;;2.45;;
84784;SDS011;75017;41.576;24.704;2024-02-23T08:42:33;5.18;;;2.00;;
84784;SDS011;75017;41.576;24.704;2024-02-23T08:44:59;2.75;;;1.50;;
84784;SDS011;75017;41.576;24.704;2024-02-23T08:47:24;2.17;;;1.75;;
84784;SDS011;75017;41.576;24.704;2024-02-23T08:49:53;4.07;;;1.95;;
84784;SDS011;75017;41.576;24.704;2024-02-23T08:52:18;9.65;;;2.13;;
84784;SDS011;75017;41.576;24.704;2024-02-23T08:54:44;13.15;;;2.92;;
84784;SDS011;75017;41.576;24.704;2024-02-23T08:57:09;4.72;;;1.80;;
84784;SDS011;75017;41.576;24.704;2024-02-23T08:59:35;8.40;;;3.00;;
84784;SDS011;75017;41.576;24.704;2024-02-23T09:02:01;7.60;;;4.13;;
84784;SDS011;75017;41.576;24.704;2024-02-23T09:04:26;6.15;;;2.20;;
84784;SDS011;75017;41.576;24.704;2024-02-23T09:06:52;4.88;;;1.75;;
84784;SDS011;75017;41.576;24.704;2024-02-23T09:09:18;4.93;;;2.03;;
84784;SDS011;75017;41.576;24.704;2024-02-23T09:11:43;8.73;;;2.97;;
84784;SDS011;75017;41.576;24.704;2024-02-23T09:14:09;5.18;;;1.58;;
84784;SDS011;75017;41.576;24.704;2024-02-23T09:16:34;14.05;;;2.20;;
84784;SDS011;75017;41.576;24.704;2024-02-23T09:19:00;4.75;;;2.10;;
84784;SDS011;75017;41.576;24.704;2024-02-23T09:21:25;2.38;;;1.30;;
84784;SDS011;75017;41.576;24.704;2024-02-23T09:23:51;3.97;;;1.67;;
84784;SDS011;75017;41.576;24.704;2024-02-23T09:26:16;2.47;;;1.30;;
84784;SDS011;75017;41.576;24.704;2024-02-23T09:28:43;3.60;;;1.85;;
84784;SDS011;75017;41.576;24.704;2024-02-23T09:31:10;3.78;;;1.63;;
84784;SDS011;75017;41.576;24.704;2024-02-23T09:33:36;4.95;;;2.33;;
84784;SDS011;75017;41.576;24.704;2024-02-23T09:36:02;2.88;;;1.63;;
84784;SDS011;75017;41.576;24.704;2024-02-23T09:38:27;2.72;;;1.15;;
84784;SDS011;75017;41.576;24.704;2024-02-23T09:40:53;3.35;;;1.95;;
84784;SDS011;75017;41.576;24.704;2024-02-23T09:43:21;2.72;;;1.63;;
84784;SDS011;75017;41.576;24.704;2024-02-23T09:45:52;6.90;;;2.10;;
84784;SDS011;75017;41.576;24.704;2024-02-23T09:48:18;11.98;;;2.53;;
84784;SDS011;75017;41.576;24.704;2024-02-23T09:50:45;3.95;;;1.60;;
84784;SDS011;75017;41.576;24.704;2024-02-23T09:53:13;2.95;;;1.80;;
84784;SDS011;75017;41.576;24.704;2024-02-23T09:55:39;4.63;;;1.67;;
84784;SDS011;75017;41.576;24.704;2024-02-23T09:58:04;2.00;;;1.23;;
84784;SDS011;75017;41.576;24.704;2024-02-23T10:00:33;5.82;;;2.60;;
84784;SDS011;75017;41.576;24.704;2024-02-23T10:05:30;4.28;;;1.85;;
84784;SDS011;75017;41.576;24.704;2024-02-23T10:07:57;6.30;;;2.42;;
84784;SDS011;75017;41.576;24.704;2024-02-23T10:10:32;6.70;;;3.10;;
84784;SDS011;75017;41.576;24.704;2024-02-23T10:12:59;3.80;;;1.73;;
84784;SDS011;75017;41.576;24.704;2024-02-23T10:15:25;2.63;;;1.40;;
84784;SDS011;75017;41.576;24.704;2024-02-23T10:17:51;8.43;;;2.88;;
84784;SDS011;75017;41.576;24.704;2024-02-23T10:20:19;6.65;;;1.80;;
84784;SDS011;75017;41.576;24.704;2024-02-23T10:22:44;5.20;;;2.28;;
84784;SDS011;75017;41.576;24.704;2024-02-23T10:25:10;4.32;;;2.30;;
84784;SDS011;75017;41.576;24.704;2024-02-23T10:27:35;5.00;;;2.90;;
84784;SDS011;75017;41.576;24.704;2024-02-23T10:30:02;5.68;;;2.70;;
84784;SDS011;75017;41.576;24.704;2024-02-23T10:32:29;3.75;;;1.98;;
84784;SDS011;75017;41.576;24.704;2024-02-23T10:34:55;3.78;;;2.03;;
84784;SDS011;75017;41.576;24.704;2024-02-23T10:37:25;3.70;;;1.83;;
84784;SDS011;75017;41.576;24.704;2024-02-23T10:39:53;4.05;;;2.28;;
84784;SDS011;75017;41.576;24.704;2024-02-23T10:42:23;2.90;;;1.77;;
84784;SDS011;75017;41.576;24.704;2024-02-23T10:44:50;4.10;;;2.20;;
84784;SDS011;75017;41.576;24.704;2024-02-23T10:47:16;3.95;;;1.98;;
84784;SDS011;75017;41.576;24.704;2024-02-23T10:49:43;3.70;;;2.25;;
84784;SDS011;75017;41.576;24.704;2024-02-23T10:52:10;5.55;;;2.67;;
84784;SDS011;75017;41.576;24.704;2024-02-23T10:54:38;9.38;;;3.10;;
84784;SDS011;75017;41.576;24.704;2024-02-23T10:57:05;4.45;;;2.05;;
84784;SDS011;75017;41.576;24.704;2024-02-23T10:59:31;5.78;;;3.13;;
84784;SDS011;75017;41.576;24.704;2024-02-23T11:01:57;6.20;;;2.90;;
84784;SDS011;75017;41.576;24.704;2024-02-23T11:04:25;7.68;;;2.50;;
84784;SDS011;75017;41.576;24.704;2024-02-23T11:06:52;4.38;;;2.40;;
84784;SDS011;75017;41.576;24.704;2024-02-23T11:09:23;4.20;;;2.22;;
84784;SDS011;75017;41.576;24.704;2024-02-23T11:11:56;3.80;;;2.35;;
84784;SDS011;75017;41.576;24.704;2024-02-23T11:14:32;6.55;;;3.28;;
84784;SDS011;75017;41.576;24.704;2024-02-23T11:17:00;4.10;;;2.50;;
84784;SDS011;75017;41.576;24.704;2024-02-23T11:19:35;8.65;;;3.35;;
84784;SDS011;75017;41.576;24.704;2024-02-23T11:22:02;4.32;;;2.50;;
84784;SDS011;75017;41.576;24.704;2024-02-23T11:24:29;11.13;;;4.30;;
84784;SDS011;75017;41.576;24.704;2024-02-23T11:26:56;4.78;;;2.00;;
84784;SDS011;75017;41.576;24.704;2024-02-23T11:29:25;3.15;;;1.58;;
84784;SDS011;75017;41.576;24.704;2024-02-23T11:31:54;3.17;;;1.50;;
84784;SDS011;75017;41.576;24.704;2024-02-23T11:34:26;2.83;;;1.88;;
84784;SDS011;75017;41.576;24.704;2024-02-23T11:36:52;3.85;;;1.75;;
84784;SDS011;75017;41.576;24.704;2024-02-23T11:39:18;6.03;;;2.80;;
84784;SDS011;75017;41.576;24.704;2024-02-23T11:41:45;3.78;;;2.50;;
84784;SDS011;75017;41.576;24.704;2024-02-23T11:44:14;2.72;;;1.58;;
84784;SDS011;75017;41.576;24.704;2024-02-23T11:46:42;2.47;;;1.35;;
84784;SDS011;75017;41.576;24.704;2024-02-23T11:49:08;2.88;;;1.63;;
84784;SDS011;75017;41.576;24.704;2024-02-23T11:51:33;5.43;;;2.67;;
84784;SDS011;75017;41.576;24.704;2024-02-23T11:53:59;3.88;;;2.00;;
84784;SDS011;75017;41.576;24.704;2024-02-23T11:56:25;7.35;;;2.35;;
84784;SDS011;75017;41.576;24.704;2024-02-23T11:58:51;2.60;;;1.92;;
84784;SDS011;75017;41.576;24.704;2024-02-23T12:01:20;3.03;;;1.73;;
84784;SDS011;75017;41.576;24.704;2024-02-23T12:03:45;4.07;;;1.85;;
84784;SDS011;75017;41.576;24.704;2024-02-23T12:06:11;4.20;;;2.35;;
84784;SDS011;75017;41.576;24.704;2024-02-23T12:08:38;2.88;;;1.40;;
84784;SDS011;75017;41.576;24.704;2024-02-23T12:11:04;3.42;;;1.90;;
84784;SDS011;75017;41.576;24.704;2024-02-23T12:13:31;2.97;;;2.05;;
84784;SDS011;75017;41.576;24.704;2024-02-23T12:15:57;2.70;;;1.80;;
84784;SDS011;75017;41.576;24.704;2024-02-23T12:18:23;5.00;;;1.77;;
84784;SDS011;75017;41.576;24.704;2024-02-23T12:20:51;3.00;;;2.08;;
84784;SDS011;75017;41.576;24.704;2024-02-23T12:23:17;3.20;;;2.20;;
84784;SDS011;75017;41.576;24.704;2024-02-23T12:25:52;3.90;;;2.15;;
84784;SDS011;75017;41.576;24.704;2024-02-23T12:28:26;3.75;;;1.92;;
84784;SDS011;75017;41.576;24.704;2024-02-23T12:31:02;5.80;;;3.20;;
84784;SDS011;75017;41.576;24.704;2024-02-23T12:33:29;4.65;;;2.47;;
84784;SDS011;75017;41.576;24.704;2024-02-23T12:35:59;5.88;;;3.08;;
84784;SDS011;75017;41.576;24.704;2024-02-23T12:38:25;4.35;;;2.60;;
84784;SDS011;75017;41.576;24.704;2024-02-23T12:40:51;7.00;;;3.70;;
84784;SDS011;75017;41.576;24.704;2024-02-23T12:43:17;4.75;;;3.17;;
84784;SDS011;75017;41.576;24.704;2024-02-23T12:45:46;5.90;;;2.17;;
84784;SDS011;75017;41.576;24.704;2024-02-23T12:48:14;5.25;;;3.15;;
84784;SDS011;75017;41.576;24.704;2024-02-23T12:50:40;4.70;;;2.95;;
84784;SDS011;75017;41.576;24.704;2024-02-23T12:53:06;3.13;;;2.17;;
84784;SDS011;75017;41.576;24.704;2024-02-23T12:55:33;5.47;;;2.72;;
84784;SDS011;75017;41.576;24.704;2024-02-23T12:57:59;4.00;;;2.83;;
84784;SDS011;75017;41.576;24.704;2024-02-23T13:00:24;4.85;;;2.47;;
84784;SDS011;75017;41.576;24.704;2024-02-23T13:02:50;5.65;;;2.90;;
84784;SDS011;75017;41.576;24.704;2024-02-23T13:05:16;4.85;;;2.70;;
84784;SDS011;75017;41.576;24.704;2024-02-23T13:07:41;5.88;;;3.33;;
84784;SDS011;75017;41.576;24.704;2024-02-23T13:10:07;7.55;;;4.75;;
84784;SDS011;75017;41.576;24.704;2024-02-23T13:12:33;4.97;;;2.55;;
84784;SDS011;75017;41.576;24.704;2024-02-23T13:14:58;5.03;;;2.70;;
84784;SDS011;75017;41.576;24.704;2024-02-23T13:17:24;5.07;;;2.63;;
84784;SDS011;75017;41.576;24.704;2024-02-23T13:19:50;9.57;;;3.05;;
84784;SDS011;75017;41.576;24.704;2024-02-23T13:22:16;6.97;;;2.53;;
84784;SDS011;75017;41.576;24.704;2024-02-23T13:24:41;5.82;;;2.92;;
84784;SDS011;75017;41.576;24.704;2024-02-23T13:27:07;8.63;;;3.45;;
84784;SDS011;75017;41.576;24.704;2024-02-23T13:29:32;6.75;;;3.30;;
84784;SDS011;75017;41.576;24.704;2024-02-23T13:31:58;4.00;;;2.50;;
84784;SDS011;75017;41.576;24.704;2024-02-23T13:34:23;4.93;;;3.35;;
84784;SDS011;75017;41.576;24.704;2024-02-23T13:36:49;9.10;;;5.72;;
84784;SDS011;75017;41.576;24.704;2024-02-23T13:39:15;5.78;;;2.95;;
84784;SDS011;75017;41.576;24.704;2024-02-23T13:41:41;4.82;;;2.75;;
84784;SDS011;75017;41.576;24.704;2024-02-23T13:44:06;7.72;;;3.90;;
84784;SDS011;75017;41.576;24.704;2024-02-23T13:46:35;8.88;;;5.15;;
84784;SDS011;75017;41.576;24.704;2024-02-23T13:49:04;10.45;;;5.90;;
84784;SDS011;75017;41.576;24.704;2024-02-23T13:51:34;8.93;;;5.18;;
84784;SDS011;75017;41.576;24.704;2024-02-23T13:53:59;7.47;;;4.90;;
84784;SDS011;75017;41.576;24.704;2024-02-23T13:56:25;10.15;;;5.00;;
84784;SDS011;75017;41.576;24.704;2024-02-23T13:58:51;9.18;;;4.70;;
84784;SDS011;75017;41.576;24.704;2024-02-23T14:01:17;8.95;;;6.03;;
84784;SDS011;75017;41.576;24.704;2024-02-23T14:03:42;5.13;;;3.45;;
84784;SDS011;75017;41.576;24.704;2024-02-23T14:06:08;11.40;;;4.10;;
84784;SDS011;75017;41.576;24.704;2024-02-23T14:08:34;6.30;;;3.13;;
84784;SDS011;75017;41.576;24.704;2024-02-23T14:11:02;8.63;;;3.53;;
84784;SDS011;75017;41.576;24.704;2024-02-23T14:13:30;4.30;;;2.92;;
84784;SDS011;75017;41.576;24.704;2024-02-23T14:15:57;6.03;;;3.03;;
84784;SDS011;75017;41.576;24.704;2024-02-23T14:18:23;4.30;;;2.40;;
84784;SDS011;75017;41.576;24.704;2024-02-23T14:20:48;8.57;;;3.28;;
84784;SDS011;75017;41.576;24.704;2024-02-23T14:23:14;10.98;;;3.78;;
84784;SDS011;75017;41.576;24.704;2024-02-23T14:25:39;6.95;;;3.92;;